createdAt,value
2022-08-16T00:01:35.618Z,0.30
2022-08-16T00:04:11.794Z,0.20
2022-08-16T00:06:44.036Z,0.10
2022-08-16T00:09:14.507Z,0.20
2022-08-16T00:11:47.553Z,0.17
2022-08-16T00:14:29.202Z,0.00
2022-08-16T00:17:15.616Z,0.10
2022-08-16T00:19:53.705Z,0.00
2022-08-16T00:22:28.061Z,0.10
2022-08-16T00:24:58.484Z,0.10
2022-08-16T00:27:30.713Z,0.10
2022-08-16T00:30:19.181Z,0.00
2022-08-16T00:32:57.046Z,0.10
2022-08-16T00:35:34.957Z,0.00
2022-08-16T00:38:38.337Z,0.20
2022-08-16T00:40:58.826Z,0.00
2022-08-16T00:43:43.845Z,0.10
2022-08-16T00:46:35.631Z,0.08
2022-08-16T00:52:01.833Z,0.10
2022-08-16T00:54:40.871Z,0.00
2022-08-16T00:57:15.672Z,0.00
2022-08-16T00:59:54.533Z,0.10
2022-08-16T01:02:33.189Z,0.00
2022-08-16T01:05:19.758Z,0.10
2022-08-16T01:08:00.800Z,0.00
2022-08-16T01:10:41.897Z,0.10
2022-08-16T01:13:19.697Z,0.00
2022-08-16T01:16:10.346Z,0.38
2022-08-16T01:19:09.716Z,0.00
2022-08-16T01:21:56.209Z,0.00
2022-08-16T01:25:07.521Z,0.10
2022-08-16T01:27:53.765Z,0.10
2022-08-16T01:30:49.525Z,0.10
2022-08-16T01:33:33.248Z,0.10
2022-08-16T01:36:12.401Z,0.00
2022-08-16T01:38:57.205Z,0.00
2022-08-16T01:41:41.949Z,0.00
2022-08-16T01:44:38.319Z,0.00
2022-08-16T01:47:12.524Z,0.32
2022-08-16T01:50:42.305Z,0.00
2022-08-16T01:52:40.823Z,0.30
2022-08-16T01:55:35.501Z,0.00
2022-08-16T01:58:06.802Z,0.00
2022-08-16T02:00:49.070Z,0.00
2022-08-16T02:03:24.306Z,0.00
2022-08-16T02:06:34.498Z,0.20
2022-08-16T02:09:11.834Z,0.00
2022-08-16T02:11:52.889Z,0.00
2022-08-16T02:14:28.094Z,0.17
2022-08-16T02:17:04.594Z,0.10
2022-08-16T02:19:59.187Z,0.00
2022-08-16T02:22:34.992Z,0.00
2022-08-16T02:25:15.639Z,0.00
2022-08-16T02:27:50.733Z,0.05
2022-08-16T02:30:36.590Z,0.08
2022-08-16T02:33:15.622Z,0.20
2022-08-16T02:38:31.547Z,0.10
2022-08-16T02:41:07.309Z,0.10
2022-08-16T02:43:41.583Z,0.00
2022-08-16T02:46:16.477Z,0.10
2022-08-16T02:48:49.294Z,0.22
2022-08-16T02:51:23.777Z,0.10
2022-08-16T02:53:54.518Z,0.17
2022-08-16T02:56:32.326Z,0.10
2022-08-16T02:59:03.311Z,0.08
2022-08-16T03:01:43.263Z,0.10
2022-08-16T03:04:24.829Z,0.13
2022-08-16T03:06:59.956Z,0.10
2022-08-16T03:09:32.555Z,0.20
2022-08-16T03:12:03.726Z,0.00
2022-08-16T03:14:34.889Z,0.00
2022-08-16T03:17:06.815Z,0.00
2022-08-16T03:19:47.837Z,0.10
2022-08-16T03:22:29.630Z,0.00
2022-08-16T03:25:03.095Z,0.10
2022-08-16T03:27:43.442Z,0.08
2022-08-16T03:30:20.213Z,0.00
2022-08-16T03:32:52.137Z,0.10
2022-08-16T03:35:33.003Z,0.08
2022-08-16T03:38:32.731Z,0.00
2022-08-16T03:41:00.282Z,0.10
2022-08-16T03:43:51.224Z,0.10
2022-08-16T03:46:44.258Z,0.20
2022-08-16T03:49:19.152Z,0.10
2022-08-16T03:51:52.012Z,0.10
2022-08-16T03:54:22.691Z,0.10
2022-08-16T03:56:57.518Z,0.30
2022-08-16T03:59:30.977Z,0.30
2022-08-16T04:02:12.102Z,0.52
2022-08-16T04:04:52.607Z,0.10
2022-08-16T04:07:24.635Z,0.10
2022-08-16T04:09:55.693Z,0.10
2022-08-16T04:12:54.283Z,0.10
2022-08-16T04:15:21.138Z,0.10
2022-08-16T04:17:53.172Z,0.17
2022-08-16T04:20:34.082Z,0.10
2022-08-16T04:23:09.731Z,0.20
2022-08-16T04:25:40.632Z,0.10
2022-08-16T04:28:52.507Z,0.10
2022-08-16T04:31:02.454Z,0.10
2022-08-16T04:33:37.610Z,0.10
2022-08-16T04:36:24.151Z,0.05
2022-08-16T04:38:55.649Z,0.05
2022-08-16T04:41:32.874Z,0.00
2022-08-16T04:44:32.343Z,0.08
2022-08-16T04:47:02.923Z,0.10
2022-08-16T04:49:43.777Z,0.10
2022-08-16T04:52:33.134Z,0.10
2022-08-16T04:55:13.100Z,0.00
2022-08-16T04:57:43.703Z,0.10
2022-08-16T05:00:32.373Z,0.10
2022-08-16T05:03:08.283Z,0.10
2022-08-16T05:05:55.555Z,0.10
2022-08-16T05:08:34.121Z,0.20
2022-08-16T05:11:08.490Z,0.10
2022-08-16T05:13:42.387Z,0.00
2022-08-16T05:16:23.128Z,0.20
2022-08-16T05:18:58.422Z,0.15
2022-08-16T05:21:40.620Z,0.10
2022-08-16T05:24:11.178Z,0.20
2022-08-16T05:26:49.542Z,0.20
2022-08-16T05:29:22.087Z,0.10
2022-08-16T05:31:56.566Z,0.10
2022-08-16T05:34:26.990Z,0.22
2022-08-16T05:36:59.474Z,0.10
2022-08-16T05:39:33.268Z,0.00
2022-08-16T05:42:04.101Z,0.00
2022-08-16T05:44:34.486Z,0.10
2022-08-16T05:47:04.911Z,0.10
2022-08-16T05:49:39.403Z,0.38
2022-08-16T05:52:13.591Z,0.00
2022-08-16T05:55:00.970Z,0.10
2022-08-16T05:57:34.565Z,0.10
2022-08-16T06:00:10.371Z,0.10
2022-08-16T06:02:41.654Z,0.00
2022-08-16T06:05:12.969Z,0.10
2022-08-16T06:07:46.559Z,0.00
2022-08-16T06:10:32.502Z,0.10
2022-08-16T06:13:03.835Z,0.10
2022-08-16T06:15:34.169Z,0.10
2022-08-16T06:18:09.053Z,0.00
2022-08-16T06:23:24.819Z,0.38
2022-08-16T06:25:56.370Z,0.40
2022-08-16T06:28:35.791Z,0.52
2022-08-16T06:31:09.888Z,0.25
2022-08-16T06:36:26.772Z,0.30
2022-08-16T06:38:57.215Z,0.60
2022-08-16T06:41:39.380Z,0.70
2022-08-16T06:44:21.183Z,0.30
2022-08-16T06:46:52.988Z,0.25
2022-08-16T06:49:27.568Z,0.20
2022-08-16T06:52:03.089Z,0.30
2022-08-16T06:54:46.429Z,0.28
2022-08-16T06:57:29.554Z,0.22
2022-08-16T07:00:00.459Z,0.50
2022-08-16T07:02:33.878Z,0.40
2022-08-16T07:05:14.974Z,0.20
2022-08-16T07:07:51.189Z,0.40
2022-08-16T07:10:26.859Z,0.43
2022-08-16T07:13:03.150Z,0.30
2022-08-16T07:15:34.862Z,0.40
2022-08-16T07:18:07.150Z,0.30
2022-08-16T07:20:47.982Z,0.30
2022-08-16T07:23:20.602Z,0.38
2022-08-16T07:26:09.967Z,0.40
2022-08-16T07:28:40.955Z,1.15
2022-08-16T07:31:12.984Z,1.33
2022-08-16T07:33:53.648Z,2.17
2022-08-16T07:36:25.832Z,2.10
2022-08-16T07:38:56.232Z,1.80
2022-08-16T07:41:27.415Z,1.40
2022-08-16T07:43:59.305Z,0.90
2022-08-16T07:46:38.668Z,0.43
2022-08-16T07:49:11.682Z,0.40
2022-08-16T07:51:43.343Z,0.60
2022-08-16T07:54:21.159Z,0.80
2022-08-16T07:57:02.422Z,0.52
2022-08-16T07:59:42.947Z,0.93
2022-08-16T08:02:19.978Z,1.10
2022-08-16T08:04:52.194Z,1.00
2022-08-16T08:07:32.452Z,0.98
2022-08-16T08:10:03.955Z,1.10
2022-08-16T08:12:38.301Z,1.15
2022-08-16T08:15:25.002Z,1.55
2022-08-16T08:18:29.480Z,1.63
2022-08-16T08:20:59.823Z,1.52
2022-08-16T08:23:30.210Z,1.30
2022-08-16T08:26:04.520Z,1.42
2022-08-16T08:28:39.471Z,1.95
2022-08-16T08:31:10.149Z,1.45
2022-08-16T08:33:47.435Z,1.67
2022-08-16T08:36:33.047Z,1.65
2022-08-16T08:39:12.541Z,1.70
2022-08-16T08:41:49.294Z,1.67
2022-08-16T08:47:09.380Z,2.25
2022-08-16T08:49:46.466Z,3.00
2022-08-16T08:52:34.655Z,2.50
2022-08-16T08:55:12.707Z,2.45
2022-08-16T08:57:46.560Z,2.90
2022-08-16T09:03:25.222Z,2.72
2022-08-16T09:06:51.996Z,2.58
2022-08-16T09:09:24.506Z,3.47
2022-08-16T09:12:04.232Z,2.10
2022-08-16T09:14:49.524Z,2.55
2022-08-16T09:17:45.631Z,2.58
2022-08-16T09:20:23.282Z,2.50
2022-08-16T09:22:57.976Z,2.90
2022-08-16T09:25:34.155Z,2.78
2022-08-16T09:28:10.243Z,2.70
2022-08-16T09:30:46.491Z,2.70
2022-08-16T09:33:22.502Z,2.50
2022-08-16T09:35:58.133Z,3.75
2022-08-16T09:38:32.902Z,5.38
2022-08-16T09:41:14.746Z,5.35
2022-08-16T09:43:58.403Z,6.03
2022-08-16T09:46:45.544Z,5.18
2022-08-16T09:49:22.057Z,5.13
2022-08-16T09:52:04.463Z,4.18
2022-08-16T09:54:45.299Z,4.85
2022-08-16T09:57:17.452Z,5.40
2022-08-16T09:59:56.278Z,6.07
2022-08-16T10:02:28.057Z,5.55
2022-08-16T10:05:02.117Z,5.97
2022-08-16T10:07:44.733Z,4.68
2022-08-16T10:10:30.505Z,5.32
2022-08-16T10:13:14.531Z,6.43
2022-08-16T10:15:55.827Z,8.63
2022-08-16T10:18:56.715Z,29.98
2022-08-16T10:21:33.813Z,26.23
2022-08-16T10:24:05.439Z,20.65
2022-08-16T10:27:20.711Z,11.07
2022-08-16T10:29:59.285Z,4.47
2022-08-16T10:32:23.413Z,3.78
2022-08-16T10:34:55.343Z,3.17
2022-08-16T10:37:35.717Z,3.58
2022-08-16T10:40:29.632Z,2.25
2022-08-16T10:43:03.945Z,2.15
2022-08-16T10:45:45.923Z,20.10
2022-08-16T10:48:31.568Z,12.35
2022-08-16T10:51:03.756Z,11.35
2022-08-16T10:53:44.812Z,8.18
2022-08-16T10:56:44.256Z,6.10
2022-08-16T11:05:09.710Z,3.83
2022-08-16T11:07:45.091Z,3.17
2022-08-16T11:11:09.907Z,4.78
2022-08-16T11:19:23.321Z,4.63
2022-08-16T11:22:38.848Z,5.78
2022-08-16T11:25:11.978Z,5.07
2022-08-16T11:27:39.203Z,4.75
2022-08-16T11:30:12.459Z,4.15
2022-08-16T11:32:54.203Z,3.65
2022-08-16T11:35:43.893Z,3.25
2022-08-16T11:38:51.246Z,4.07
2022-08-16T11:41:15.349Z,4.53
2022-08-16T11:43:48.999Z,2.90
2022-08-16T11:46:44.189Z,3.65
2022-08-16T11:49:20.023Z,3.90
2022-08-16T11:51:53.689Z,9.35
2022-08-16T11:54:33.126Z,8.60
2022-08-16T11:57:09.647Z,11.48
2022-08-16T11:59:42.504Z,13.68
2022-08-16T12:02:31.190Z,11.73
2022-08-16T12:05:03.279Z,10.90
2022-08-16T12:07:36.375Z,11.88
2022-08-16T12:10:16.219Z,8.73
2022-08-16T12:12:53.915Z,10.82
2022-08-16T12:15:33.063Z,10.82
2022-08-16T12:18:06.869Z,8.77
2022-08-16T12:20:41.054Z,7.13
2022-08-16T12:23:13.660Z,12.67
2022-08-16T12:25:43.952Z,13.50
2022-08-16T12:28:14.554Z,13.00
2022-08-16T12:30:47.572Z,7.80
2022-08-16T12:33:25.268Z,6.38
2022-08-16T12:35:57.401Z,6.15
2022-08-16T12:38:41.461Z,6.10
2022-08-16T12:41:24.682Z,5.45
2022-08-16T12:44:05.894Z,5.80
2022-08-16T12:46:37.438Z,4.60
2022-08-16T12:49:15.547Z,4.38
2022-08-16T12:51:59.640Z,6.05
2022-08-16T12:54:30.314Z,4.95
2022-08-16T12:57:04.153Z,4.38
2022-08-16T12:59:38.539Z,3.25
2022-08-16T13:02:12.684Z,2.88
2022-08-16T13:04:53.641Z,2.00
2022-08-16T13:07:26.965Z,1.45
2022-08-16T13:10:09.831Z,1.15
2022-08-16T13:12:54.926Z,0.80
2022-08-16T13:15:32.976Z,1.00
2022-08-16T13:18:32.318Z,1.08
2022-08-16T13:21:12.086Z,1.00
2022-08-16T13:23:43.959Z,1.17
2022-08-16T13:26:17.284Z,1.23
2022-08-16T13:28:48.425Z,0.90
2022-08-16T13:31:18.894Z,1.00
2022-08-16T13:33:58.492Z,1.23
2022-08-16T13:36:48.655Z,1.80
2022-08-16T13:39:25.027Z,3.40
2022-08-16T13:41:56.911Z,2.10
2022-08-16T13:44:58.370Z,2.25
2022-08-16T13:47:36.449Z,2.08
2022-08-16T13:50:08.098Z,1.65
2022-08-16T23:21:28.524Z,1.20
2022-08-16T23:24:00.135Z,1.30
2022-08-16T23:26:43.882Z,1.60
2022-08-16T23:29:24.129Z,1.25
2022-08-16T23:32:13.258Z,1.73
2022-08-16T23:34:43.621Z,1.15
2022-08-16T23:37:13.822Z,1.30
2022-08-16T23:39:45.751Z,1.20
2022-08-16T23:42:44.173Z,1.58
2022-08-16T23:45:13.480Z,1.65
2022-08-16T23:47:45.719Z,1.85
2022-08-16T23:50:16.832Z,1.35
2022-08-16T23:53:12.629Z,2.38
2022-08-16T23:55:46.488Z,1.70
2022-08-16T23:58:19.949Z,2.25
